KBIL

Billings Logan International Airport

Billings, Montana, USA
METAR KBIL 231253Z 01006KT 10SM SCT095 15/07 A3030 RMK AO2 SLP235 ACC ALQDS T01500067
Observed Flight Rules
Jul-23 @ 12:53 UTC (15 minutes ago) Visual Flight Rules
Wind Visibility Clouds
10° at 6 knots 10 miles
  • Scattered at 9,500' AGL
Temperatures Readings
Current 15°C / 59°F
Dewpoint 7°C / 45°F
Humidity 59%
Altimeter 30.3" Hg
Pressure 1023.5 hPa
Elevation 1091
METAR KBIL 231253Z 01006KT 10SM SCT095 15/07 A3030 RMK AO2 SLP235 ACC ALQDS T01500067
Observed Flight Rules
Jul-23 @ 12:53 UTC
(15 minutes ago)
VFR
Wind Visibility
10° at 6 knots 10 miles
Clouds
  • Scattered at 9,500' AGL
Temperature Dewpoint
15°C / 59°F 7°C / 45°F
Humidity Altimeter Pressure
59% 30.3" Hg 1023.5 hPa